Aérodrome :
LOGIN :

S'inscrire | Disclaimer

   EN    FR    IT 

 










Légende :    VFR   VFR Marginal   IFR   IFR Intensif   IFR Très Intensif
Visi : 
Plafond : 
>= 8 km
>= 3000ft
5 à 8 km
1000 à 3000 ft
1500m à 5 km
500 à 1000 ft
800 à 1500m
200 à 500 ft
< 800m
< 200 ft
Symboles :   Orages  Brouillard  Fortes neiges  Fortes précipitations  Vent > 20 kt
SIGMETs :   Divers  Orages  Givrage  Turbulence  Onde Orograph.  Cendres Volcan.







- Altitude de l'aérodrome : 2044 ft


ETSA - Landsberg-Lech AB

DERNIER METAR :
  • 261720Z 04002KT 8000 -RASN FEW005 BKN007 OVC015 02/01 Q1010 GRN

METARs EXPIRÉS :
  • 261620Z 35002KT 8000 -RASN FEW005 BKN007 OVC020 02/01 Q1010 GRN
  • 261548Z 35003KT 6000 -RASN BKN006 OVC020 02/01 Q1010 YLO
  • 261520Z 35003KT 8000 -RASN BKN007 OVC020 02/01 Q1010 GRN
  • 261500Z 34003KT 8000 -RASN BKN007 OVC020 02/01 Q1010 GRN FCST CANCEL

TAF TAF ETSA
Valide du 26 à 17h jusqu'au 27 à 05h UTC


261615Z 2617/2705 35006KT 5000 -RASN OVC008
TEMPO 2617/2705 02008KT 3000 SN OVC004 BY ETGL
Pas de NOTAMs connus pour ce terrain.



MET'MAP, la Météo Aéronautique d'un coup d'oeil ! - Copyright ORBIFLY Décembre 2007 - Disclaimer

ORBIFLY MET'MAP TEAM :

Programmation & Développement : Alexandra Zaïnal
Conception & Développement : Baudouin d'Aumeries
Co-Programmation & Développement : Marc-Olivier Méhu
Soutien technique & logistique : Manuel Goepfert

Contact : metmap@orbifly.com




SOURCES & CREDITS :

   NOAA